createdAt,value
2023-04-07T00:02:03.739Z,54.97
2023-04-07T00:04:32.142Z,54.45
2023-04-07T00:07:02.076Z,52.89
2023-04-07T00:09:30.223Z,53.73
2023-04-07T00:11:58.456Z,53.79
2023-04-07T00:14:26.695Z,53.82
2023-04-07T00:16:55.021Z,53.42
2023-04-07T00:19:23.238Z,53.66
2023-04-07T00:21:51.316Z,53.78
2023-04-07T00:24:27.478Z,53.89
2023-04-07T00:27:02.250Z,53.88
2023-04-07T00:29:30.496Z,54.34
2023-04-07T00:31:58.665Z,54.23
2023-04-07T00:34:26.840Z,54.30
2023-04-07T00:36:55.110Z,54.60
2023-04-07T00:39:24.757Z,54.75
2023-04-07T00:41:52.968Z,55.14
2023-04-07T00:44:21.348Z,55.22
2023-04-07T00:46:49.711Z,54.97
2023-04-07T00:49:19.205Z,55.54
2023-04-07T00:51:48.010Z,54.86
2023-04-07T00:54:17.907Z,54.70
2023-04-07T00:56:47.502Z,54.73
2023-04-07T00:59:16.243Z,54.28
2023-04-07T01:01:49.984Z,54.97
2023-04-07T01:04:28.151Z,53.89
2023-04-07T01:07:03.023Z,53.41
2023-04-07T01:09:39.507Z,54.03
2023-04-07T01:12:17.252Z,53.92
2023-04-07T01:14:55.103Z,53.53
2023-04-07T01:17:27.078Z,53.57
2023-04-07T01:20:01.682Z,54.44
2023-04-07T01:22:34.809Z,53.92
2023-04-07T01:25:34.734Z,54.43
2023-04-07T01:28:16.957Z,54.73
2023-04-07T01:30:47.875Z,54.08
2023-04-07T01:33:17.310Z,53.86
2023-04-07T01:35:47.274Z,54.15
2023-04-07T01:38:16.535Z,54.26
2023-04-07T01:40:45.799Z,54.50
2023-04-07T01:43:15.634Z,54.82
2023-04-07T01:45:45.365Z,54.86
2023-04-07T01:48:15.884Z,55.02
2023-04-07T01:50:45.482Z,54.88
2023-04-07T01:53:14.089Z,54.63
2023-04-07T01:55:43.526Z,54.82
2023-04-07T01:58:11.655Z,54.84
2023-04-07T02:00:39.933Z,54.94
2023-04-07T02:03:21.079Z,54.85
2023-04-07T02:05:56.161Z,54.95
2023-04-07T02:08:29.553Z,54.89
2023-04-07T02:11:01.010Z,55.05
2023-04-07T02:13:32.235Z,54.81
2023-04-07T02:16:01.757Z,54.81
2023-04-07T02:18:33.141Z,53.56
2023-04-07T02:21:04.148Z,52.89
2023-04-07T02:23:32.363Z,53.35
2023-04-07T02:26:00.412Z,53.93
2023-04-07T02:28:28.636Z,54.53
2023-04-07T02:30:56.773Z,54.65
2023-04-07T02:33:25.008Z,54.18
2023-04-07T02:35:53.107Z,54.09
2023-04-07T02:38:22.549Z,54.62
2023-04-07T02:40:50.632Z,55.17
2023-04-07T02:43:19.435Z,55.60
2023-04-07T02:45:47.627Z,55.78
2023-04-07T02:48:16.047Z,56.08
2023-04-07T02:50:44.303Z,56.46
2023-04-07T02:53:12.339Z,56.38
2023-04-07T02:55:41.760Z,56.75
2023-04-07T02:58:09.928Z,57.05
2023-04-07T03:00:38.107Z,56.72
2023-04-07T03:03:06.960Z,57.29
2023-04-07T03:05:35.309Z,57.03
2023-04-07T03:08:03.432Z,57.27
2023-04-07T03:10:31.721Z,57.55
2023-04-07T03:13:01.190Z,57.05
2023-04-07T03:15:29.403Z,57.38
2023-04-07T03:17:57.571Z,57.24
2023-04-07T03:20:25.774Z,57.30
2023-04-07T03:22:53.898Z,58.08
2023-04-07T03:25:21.967Z,58.11
2023-04-07T03:27:50.094Z,57.65
2023-04-07T03:30:19.635Z,57.49
2023-04-07T03:32:47.736Z,57.79
2023-04-07T03:35:16.087Z,57.43
2023-04-07T03:37:44.189Z,57.38
2023-04-07T03:40:13.784Z,57.87
2023-04-07T03:42:41.932Z,57.42
2023-04-07T03:45:11.018Z,57.75
2023-04-07T03:47:40.557Z,57.34
2023-04-07T03:50:09.379Z,57.15
2023-04-07T03:52:37.382Z,56.78
2023-04-07T03:55:06.311Z,56.86
2023-04-07T03:57:34.435Z,56.80
2023-04-07T04:00:02.861Z,56.69
2023-04-07T04:02:31.044Z,56.63
2023-04-07T04:05:00.730Z,56.75
2023-04-07T04:07:28.785Z,57.30
2023-04-07T04:09:56.858Z,57.19
2023-04-07T04:12:24.959Z,57.49
2023-04-07T04:14:53.120Z,56.97
2023-04-07T04:17:21.507Z,56.01
2023-04-07T04:19:50.160Z,56.44
2023-04-07T04:22:20.147Z,57.07
2023-04-07T04:24:48.241Z,56.74
2023-04-07T04:27:16.524Z,57.13
2023-04-07T04:29:44.590Z,57.25
2023-04-07T04:32:12.769Z,57.10
2023-04-07T04:34:42.190Z,56.13
2023-04-07T04:37:10.571Z,55.14
2023-04-07T04:39:40.733Z,55.68
2023-04-07T04:42:08.830Z,55.41
2023-04-07T04:44:37.036Z,54.73
2023-04-07T04:47:05.207Z,54.73
2023-04-07T04:49:33.313Z,54.54
2023-04-07T04:52:01.363Z,54.58
2023-04-07T04:54:29.556Z,53.80
2023-04-07T04:56:58.986Z,53.18
2023-04-07T04:59:28.132Z,53.14
2023-04-07T05:01:56.589Z,53.28
2023-04-07T05:04:27.130Z,53.13
2023-04-07T05:06:55.642Z,53.01
2023-04-07T05:09:23.854Z,52.09
2023-04-07T05:11:51.976Z,51.85
2023-04-07T05:14:21.518Z,51.42
2023-04-07T05:16:49.648Z,51.04
2023-04-07T05:19:17.772Z,50.96
2023-04-07T05:21:46.199Z,49.98
2023-04-07T05:24:14.358Z,49.83
2023-04-07T05:26:42.761Z,49.29
2023-04-07T05:29:10.958Z,49.32
2023-04-07T05:31:41.324Z,49.93
2023-04-07T05:34:10.028Z,49.50
2023-04-07T05:36:38.463Z,47.58
2023-04-07T05:39:06.602Z,45.53
2023-04-07T05:41:34.673Z,44.91
2023-04-07T05:44:02.783Z,45.75
2023-04-07T05:46:30.953Z,46.68
2023-04-07T05:49:07.174Z,45.80
2023-04-07T05:51:48.776Z,45.28
2023-04-07T05:54:17.499Z,44.59
2023-04-07T05:56:48.072Z,45.55
2023-04-07T05:59:16.116Z,44.57
2023-04-07T06:01:44.577Z,45.22
2023-04-07T06:04:14.399Z,44.93
2023-04-07T06:06:42.595Z,44.91
2023-04-07T06:09:10.862Z,44.62
2023-04-07T06:11:39.028Z,44.73
2023-04-07T06:14:07.126Z,44.77
2023-04-07T06:16:35.426Z,42.35
2023-04-07T06:19:03.875Z,43.15
2023-04-07T06:21:33.679Z,43.33
2023-04-07T06:24:01.949Z,43.09
2023-04-07T06:26:32.642Z,42.64
2023-04-07T06:29:01.045Z,42.72
2023-04-07T06:31:30.055Z,42.67
2023-04-07T06:33:58.169Z,43.12
2023-04-07T06:36:27.441Z,43.02
2023-04-07T06:38:57.196Z,42.65
2023-04-07T06:41:25.612Z,43.12
2023-04-07T06:43:54.597Z,42.56
2023-04-07T06:46:22.887Z,41.53
2023-04-07T06:48:51.236Z,41.47
2023-04-07T06:51:19.673Z,41.04
2023-04-07T06:53:48.938Z,40.85
2023-04-07T06:56:18.797Z,41.22
2023-04-07T06:58:47.166Z,41.72
2023-04-07T07:01:16.171Z,41.14
2023-04-07T07:03:44.492Z,40.98
2023-04-07T07:06:12.672Z,41.17
2023-04-07T07:08:41.157Z,40.65
2023-04-07T07:11:09.522Z,39.86
2023-04-07T07:13:39.424Z,40.02
2023-04-07T07:16:08.295Z,39.50
2023-04-07T07:18:36.994Z,40.18
2023-04-07T07:21:05.449Z,39.82
2023-04-07T07:23:36.503Z,40.51
2023-04-07T07:26:05.712Z,39.73
2023-04-07T07:28:33.949Z,40.03
2023-04-07T07:31:10.531Z,39.60
2023-04-07T07:33:40.849Z,38.71
2023-04-07T07:36:09.982Z,39.03
2023-04-07T07:38:38.159Z,40.19
2023-04-07T07:41:07.832Z,40.58
2023-04-07T07:43:37.362Z,40.09
2023-04-07T07:46:07.356Z,39.98
2023-04-07T07:48:35.562Z,39.93
2023-04-07T07:51:03.716Z,39.61
2023-04-07T07:53:31.982Z,39.55
2023-04-07T07:56:00.221Z,39.23
2023-04-07T07:58:28.392Z,39.62
2023-04-07T08:00:56.674Z,39.80
2023-04-07T08:03:27.029Z,40.90
2023-04-07T08:05:55.616Z,40.70
2023-04-07T08:08:23.846Z,40.49
2023-04-07T08:10:52.078Z,39.92
2023-04-07T08:13:20.192Z,39.95
2023-04-07T08:15:48.425Z,40.88
2023-04-07T08:18:16.834Z,39.28
2023-04-07T08:20:46.890Z,39.86
2023-04-07T08:23:15.056Z,40.10
2023-04-07T08:25:43.453Z,40.71
2023-04-07T08:28:11.601Z,39.99
2023-04-07T08:30:39.794Z,39.65
2023-04-07T08:33:08.263Z,38.53
2023-04-07T08:35:36.504Z,39.63
2023-04-07T08:38:06.330Z,39.32
2023-04-07T08:40:35.503Z,39.00
2023-04-07T08:43:09.937Z,37.73
2023-04-07T08:45:42.292Z,37.53
2023-04-07T08:48:17.731Z,37.67
2023-04-07T08:50:47.320Z,38.25
2023-04-07T08:53:24.623Z,38.26
2023-04-07T08:55:53.393Z,38.75
2023-04-07T08:58:22.716Z,38.65
2023-04-07T09:00:51.177Z,38.51
2023-04-07T09:03:19.717Z,36.99
2023-04-07T09:05:48.490Z,39.04
2023-04-07T09:08:18.113Z,38.21
2023-04-07T09:10:47.751Z,38.80
2023-04-07T09:13:16.514Z,38.47
2023-04-07T09:15:44.924Z,38.82
2023-04-07T09:18:13.140Z,38.22
2023-04-07T09:21:00.369Z,38.48
2023-04-07T09:23:34.654Z,38.45
2023-04-07T09:26:20.087Z,37.71
2023-04-07T09:28:50.606Z,38.34
2023-04-07T09:31:20.014Z,37.96
2023-04-07T09:33:48.998Z,38.05
2023-04-07T09:36:18.164Z,38.74
2023-04-07T09:38:48.462Z,37.85
2023-04-07T09:41:17.984Z,37.60
2023-04-07T09:43:47.926Z,38.76
2023-04-07T09:46:19.167Z,37.84
2023-04-07T09:48:48.734Z,38.64
2023-04-07T09:51:19.130Z,38.04
2023-04-07T09:54:08.438Z,37.89
2023-04-07T09:56:37.501Z,37.43
2023-04-07T09:59:06.218Z,37.58
2023-04-07T10:01:34.533Z,37.67
2023-04-07T10:04:03.099Z,37.99
2023-04-07T10:06:31.441Z,38.36
2023-04-07T10:08:59.897Z,37.74
2023-04-07T10:11:29.647Z,37.50
2023-04-07T10:13:58.542Z,37.87
2023-04-07T10:16:27.331Z,36.92
2023-04-07T10:18:56.387Z,36.87
2023-04-07T10:21:24.700Z,37.28
2023-04-07T10:24:01.809Z,37.39
2023-04-07T10:26:35.850Z,36.92
2023-04-07T10:29:09.600Z,38.58
2023-04-07T10:31:39.656Z,38.33
2023-04-07T10:34:07.945Z,36.92
2023-04-07T10:36:36.872Z,37.03
2023-04-07T10:39:24.470Z,37.89
2023-04-07T10:41:54.114Z,38.07
2023-04-07T10:44:48.324Z,37.44
2023-04-07T10:47:16.833Z,36.65
2023-04-07T10:50:18.174Z,36.87
2023-04-07T10:52:47.813Z,37.42
2023-04-07T10:55:34.126Z,36.89
2023-04-07T10:58:24.038Z,36.87
2023-04-07T11:01:21.797Z,37.00
2023-04-07T11:04:04.216Z,38.01
2023-04-07T11:06:33.144Z,37.84
2023-04-07T11:09:03.366Z,36.60
2023-04-07T11:11:50.156Z,37.00
2023-04-07T11:14:34.207Z,37.10
2023-04-07T11:17:04.474Z,38.24
2023-04-07T11:19:54.210Z,38.83
2023-04-07T11:22:29.826Z,37.85
2023-04-07T11:24:58.962Z,38.42
2023-04-07T11:27:28.680Z,37.98
2023-04-07T11:29:58.532Z,38.04
2023-04-07T11:32:29.956Z,37.65
2023-04-07T11:34:59.625Z,38.79
2023-04-07T11:37:29.142Z,38.11
2023-04-07T11:39:58.563Z,38.41
2023-04-07T11:42:33.819Z,38.44
2023-04-07T11:45:07.754Z,39.18
2023-04-07T11:47:37.613Z,38.66
2023-04-07T11:50:06.621Z,38.70
2023-04-07T11:52:44.280Z,38.99
2023-04-07T11:55:22.436Z,38.83
2023-04-07T11:57:52.231Z,39.03
2023-04-07T12:00:22.556Z,39.25
2023-04-07T12:02:51.891Z,39.56
2023-04-07T12:05:27.694Z,40.13
2023-04-07T12:07:56.795Z,39.84
2023-04-07T12:10:26.981Z,38.25
2023-04-07T12:12:56.372Z,40.00
2023-04-07T12:15:27.549Z,38.75
2023-04-07T12:17:56.141Z,38.05
2023-04-07T12:20:24.261Z,39.00
2023-04-07T12:22:54.254Z,38.96
2023-04-07T12:25:22.500Z,37.99
2023-04-07T12:27:50.851Z,38.24
2023-04-07T12:30:19.246Z,37.83
2023-04-07T12:32:49.057Z,39.26
2023-04-07T12:35:17.428Z,39.55
2023-04-07T12:37:48.399Z,39.71
2023-04-07T12:40:18.180Z,40.01
2023-04-07T12:42:46.253Z,39.96
2023-04-07T12:45:14.432Z,40.26
2023-04-07T12:47:42.819Z,40.85
2023-04-07T12:50:12.703Z,41.13
2023-04-07T12:52:41.169Z,41.42
2023-04-07T12:55:10.194Z,40.25
2023-04-07T12:57:39.411Z,40.18
2023-04-07T13:00:10.616Z,39.05
2023-04-07T13:02:39.192Z,39.38
2023-04-07T13:05:12.926Z,39.03
2023-04-07T13:07:42.559Z,40.32
2023-04-07T13:10:11.789Z,41.11
2023-04-07T13:12:41.512Z,40.96
2023-04-07T13:15:10.410Z,41.15
2023-04-07T13:17:38.764Z,41.62
2023-04-07T13:20:09.049Z,41.40
2023-04-07T13:22:49.287Z,42.58
2023-04-07T13:25:21.856Z,41.85
2023-04-07T13:27:50.133Z,42.56
2023-04-07T13:30:19.818Z,42.57
2023-04-07T13:32:49.991Z,43.17
2023-04-07T13:35:19.295Z,42.29
2023-04-07T13:37:47.435Z,41.58
2023-04-07T13:40:16.095Z,41.96
2023-04-07T13:42:45.820Z,42.84
2023-04-07T13:45:14.074Z,43.58
2023-04-07T13:47:42.165Z,43.00
2023-04-07T13:50:11.112Z,42.79
2023-04-07T13:52:39.323Z,43.07
2023-04-07T13:55:09.660Z,43.14
2023-04-07T13:57:41.816Z,43.67
2023-04-07T14:00:14.635Z,43.57
2023-04-07T14:02:42.869Z,44.80
2023-04-07T14:05:11.093Z,44.48
2023-04-07T14:07:44.426Z,44.87
2023-04-07T14:10:12.584Z,45.25
2023-04-07T14:12:41.419Z,45.08
2023-04-07T14:15:11.922Z,44.24
2023-04-07T14:17:40.257Z,44.12
2023-04-07T14:20:10.788Z,44.68
2023-04-07T14:22:38.884Z,45.92
2023-04-07T14:25:08.733Z,44.76
2023-04-07T14:27:40.012Z,44.78
2023-04-07T14:30:09.558Z,44.21
2023-04-07T14:32:39.141Z,45.22
2023-04-07T14:35:08.296Z,44.35
2023-04-07T14:37:36.308Z,44.25
2023-04-07T14:40:05.304Z,44.14
2023-04-07T14:42:33.922Z,44.86
2023-04-07T14:45:03.246Z,44.30
2023-04-07T14:47:31.552Z,44.25
2023-04-07T14:50:01.158Z,44.81
2023-04-07T14:52:30.230Z,44.82
2023-04-07T14:55:00.410Z,44.24
2023-04-07T14:57:30.763Z,45.05
2023-04-07T15:00:00.235Z,45.29
2023-04-07T15:02:29.825Z,46.02
2023-04-07T15:04:58.873Z,47.35
2023-04-07T15:07:28.915Z,46.59
2023-04-07T15:09:57.232Z,46.77
2023-04-07T15:12:26.405Z,47.27
2023-04-07T15:14:54.919Z,47.29
2023-04-07T15:17:32.996Z,47.53
2023-04-07T15:20:09.810Z,47.95
2023-04-07T15:22:39.604Z,48.59
2023-04-07T15:25:09.876Z,49.29
2023-04-07T15:27:39.024Z,48.95
2023-04-07T15:30:08.871Z,49.04
2023-04-07T15:32:37.232Z,50.40
2023-04-07T15:35:08.127Z,49.62
2023-04-07T15:37:36.545Z,49.43
2023-04-07T15:40:07.667Z,49.97
2023-04-07T15:42:41.798Z,50.17
2023-04-07T15:45:11.446Z,49.07
2023-04-07T15:47:40.225Z,49.53
2023-04-07T15:50:10.096Z,49.90
2023-04-07T15:52:38.264Z,50.90
2023-04-07T15:55:08.886Z,52.20
2023-04-07T15:57:37.438Z,51.99
2023-04-07T16:00:06.693Z,51.85
2023-04-07T16:02:35.215Z,52.12
2023-04-07T16:05:04.539Z,52.46
2023-04-07T16:07:32.658Z,52.96
2023-04-07T16:10:00.849Z,52.86
2023-04-07T16:12:30.453Z,54.01
2023-04-07T16:14:58.724Z,54.47
2023-04-07T16:17:27.086Z,54.71
2023-04-07T16:19:55.406Z,54.81
2023-04-07T16:22:23.558Z,54.60
2023-04-07T16:24:51.770Z,55.02
2023-04-07T16:27:19.902Z,55.36
2023-04-07T16:29:49.428Z,55.56
2023-04-07T16:32:17.717Z,55.54
2023-04-07T16:34:45.911Z,55.79
2023-04-07T16:37:14.194Z,55.93
2023-04-07T16:39:42.429Z,56.14
2023-04-07T16:42:12.208Z,56.67
2023-04-07T16:44:40.342Z,56.84
2023-04-07T16:47:09.925Z,57.90
2023-04-07T16:49:38.438Z,58.89
2023-04-07T16:52:06.659Z,59.73
2023-04-07T16:54:36.037Z,60.41
2023-04-07T16:57:04.161Z,60.52
2023-04-07T16:59:33.274Z,61.29
2023-04-07T17:02:11.033Z,62.12
2023-04-07T17:04:39.356Z,62.19
2023-04-07T17:07:08.416Z,62.91
2023-04-07T17:09:37.028Z,63.36
2023-04-07T17:12:05.918Z,63.41
2023-04-07T17:14:33.955Z,64.11
2023-04-07T17:17:02.390Z,64.02
2023-04-07T17:19:31.989Z,64.71
2023-04-07T17:22:01.306Z,64.60
2023-04-07T17:24:29.429Z,64.10
2023-04-07T17:26:57.391Z,64.24
2023-04-07T17:29:29.163Z,64.17
2023-04-07T17:31:57.702Z,64.08
2023-04-07T17:34:25.870Z,64.07
2023-04-07T17:36:55.501Z,64.48
2023-04-07T17:39:23.671Z,64.71
2023-04-07T17:41:51.903Z,65.14
2023-04-07T17:44:20.144Z,65.01
2023-04-07T17:46:48.524Z,65.12
2023-04-07T17:49:17.168Z,65.14
2023-04-07T17:51:45.912Z,64.79
2023-04-07T17:54:16.234Z,65.81
2023-04-07T17:56:44.402Z,65.65
2023-04-07T17:59:12.482Z,65.43
2023-04-07T18:01:40.780Z,64.54
2023-04-07T18:04:09.425Z,65.42
2023-04-07T18:06:37.677Z,65.63
2023-04-07T18:09:05.895Z,63.82
2023-04-07T18:11:36.373Z,64.49
2023-04-07T18:14:04.448Z,64.55
2023-04-07T18:16:32.644Z,64.97
2023-04-07T18:19:01.202Z,64.73
2023-04-07T18:21:29.714Z,64.32
2023-04-07T18:23:57.814Z,64.96
2023-04-07T18:26:25.971Z,65.04
2023-04-07T18:28:55.750Z,65.54
2023-04-07T18:31:23.905Z,66.09
2023-04-07T18:33:52.421Z,65.82
2023-04-07T18:36:24.626Z,65.42
2023-04-07T18:38:52.738Z,65.69
2023-04-07T18:41:20.926Z,65.37
2023-04-07T18:43:49.339Z,66.07
2023-04-07T18:46:19.234Z,62.35
2023-04-07T18:48:47.379Z,61.51
2023-04-07T18:51:15.921Z,59.42
2023-04-07T18:53:44.122Z,58.74
2023-04-07T18:56:14.873Z,57.65
2023-04-07T18:58:46.018Z,57.22
2023-04-07T19:01:14.305Z,56.82
2023-04-07T19:03:44.842Z,56.98
2023-04-07T19:06:15.925Z,56.47
2023-04-07T19:08:44.271Z,57.21
2023-04-07T19:11:12.501Z,56.92
2023-04-07T19:13:40.708Z,57.50
2023-04-07T19:16:10.303Z,57.05
2023-04-07T19:18:38.475Z,57.33
2023-04-07T19:21:08.830Z,57.57
2023-04-07T19:23:37.672Z,57.67
2023-04-07T19:26:05.820Z,57.83
2023-04-07T19:28:33.979Z,57.73
2023-04-07T19:31:02.526Z,57.97
2023-04-07T19:33:30.722Z,57.85
2023-04-07T19:35:59.107Z,58.60
2023-04-07T19:38:28.969Z,58.56
2023-04-07T19:40:57.043Z,57.88
2023-04-07T19:43:25.378Z,58.33
2023-04-07T19:45:54.350Z,57.94
2023-04-07T19:48:22.613Z,58.68
2023-04-07T19:50:51.580Z,58.06
2023-04-07T19:53:19.812Z,58.44
2023-04-07T19:55:50.190Z,58.94
2023-04-07T19:58:19.056Z,59.30
2023-04-07T20:00:49.956Z,59.31
2023-04-07T20:03:18.752Z,58.98
2023-04-07T20:05:47.074Z,59.54
2023-04-07T20:08:15.230Z,60.13
2023-04-07T20:10:43.400Z,59.93
2023-04-07T20:13:16.568Z,59.68
2023-04-07T20:15:46.795Z,60.08
2023-04-07T20:18:17.125Z,60.34
2023-04-07T20:20:45.921Z,60.40
2023-04-07T20:23:15.989Z,61.00
2023-04-07T20:25:44.464Z,61.44
2023-04-07T20:28:14.137Z,61.87
2023-04-07T20:30:42.188Z,61.26
2023-04-07T20:33:10.386Z,61.23
2023-04-07T20:35:39.837Z,60.90
2023-04-07T20:38:08.001Z,60.70
2023-04-07T20:40:38.782Z,61.27
2023-04-07T20:43:07.624Z,60.34
2023-04-07T20:45:37.361Z,60.16
2023-04-07T20:48:05.793Z,60.63
2023-04-07T20:50:34.195Z,60.46
2023-04-07T20:53:02.661Z,60.82
2023-04-07T20:55:30.784Z,60.46
2023-04-07T20:57:59.022Z,60.58
2023-04-07T21:00:27.196Z,61.25
2023-04-07T21:02:57.090Z,60.55
2023-04-07T21:05:25.318Z,60.97
2023-04-07T21:07:53.627Z,61.11
2023-04-07T21:10:21.827Z,61.12
2023-04-07T21:12:49.880Z,61.27
2023-04-07T21:15:18.375Z,61.37
2023-04-07T21:17:46.552Z,61.00
2023-04-07T21:20:16.659Z,61.76
2023-04-07T21:22:44.831Z,61.41
2023-04-07T21:25:13.125Z,61.82
2023-04-07T21:27:41.485Z,61.95
2023-04-07T21:30:10.783Z,61.87
2023-04-07T21:32:38.854Z,61.96
2023-04-07T21:35:07.523Z,61.53
2023-04-07T21:37:37.095Z,62.02
2023-04-07T21:40:06.067Z,61.37
2023-04-07T21:42:34.124Z,61.16
2023-04-07T21:45:02.457Z,61.25
2023-04-07T21:47:30.547Z,60.94
2023-04-07T21:49:59.779Z,60.90
2023-04-07T21:52:28.063Z,61.13
2023-04-07T21:54:57.647Z,60.76
2023-04-07T21:57:25.972Z,61.28
2023-04-07T21:59:54.178Z,61.89
2023-04-07T22:02:22.498Z,62.51
2023-04-07T22:04:50.715Z,62.73
2023-04-07T22:07:18.992Z,63.09
2023-04-07T22:09:47.237Z,63.68
2023-04-07T22:12:16.745Z,63.46
2023-04-07T22:14:45.304Z,62.52
2023-04-07T22:17:13.447Z,62.15
2023-04-07T22:19:41.558Z,61.78
2023-04-07T22:22:09.913Z,61.47
2023-04-07T22:24:37.903Z,61.62
2023-04-07T22:27:05.916Z,61.83
2023-04-07T22:29:35.876Z,62.11
2023-04-07T22:32:03.968Z,62.01
2023-04-07T22:34:31.974Z,62.22
2023-04-07T22:37:00.098Z,62.64
2023-04-07T22:39:28.386Z,62.55
2023-04-07T22:41:56.463Z,62.34
2023-04-07T22:44:24.619Z,62.52
2023-04-07T22:46:54.299Z,63.07
2023-04-07T22:49:22.541Z,63.15
2023-04-07T22:51:50.850Z,62.54
2023-04-07T22:54:19.577Z,62.76
2023-04-07T22:56:47.791Z,63.22
2023-04-07T22:59:16.027Z,64.00
2023-04-07T23:01:44.159Z,63.72
2023-04-07T23:04:13.715Z,63.82
2023-04-07T23:06:43.640Z,64.37
2023-04-07T23:09:11.944Z,64.15
2023-04-07T23:11:40.127Z,64.38
2023-04-07T23:14:08.697Z,64.21
2023-04-07T23:16:36.965Z,63.75
2023-04-07T23:19:05.183Z,63.58
2023-04-07T23:21:34.795Z,64.00
2023-04-07T23:24:02.950Z,64.86
2023-04-07T23:26:31.598Z,65.25
2023-04-07T23:28:59.634Z,65.52
2023-04-07T23:31:28.464Z,65.85
2023-04-07T23:33:57.089Z,66.04
2023-04-07T23:36:25.182Z,66.62
2023-04-07T23:38:56.113Z,67.03
2023-04-07T23:41:24.455Z,67.23
2023-04-07T23:43:52.792Z,67.08
2023-04-07T23:46:21.283Z,67.09
2023-04-07T23:48:49.750Z,67.34
2023-04-07T23:51:18.201Z,67.36
2023-04-07T23:53:46.507Z,67.57
2023-04-07T23:56:16.153Z,67.81
2023-04-07T23:58:44.215Z,68.35
